Time;durP1;ratioP1;P1;durP2;ratioP2;P2;SDS_P1;SDS_P2;PMS_P1;PMS_P2;Temp;Humidity;BMP_temperature;BMP_pressure;BME280_temperature;BME280_humidity;BME280_pressure;Samples;Min_cycle;Max_cycle;Signal;HPM_P1;HPM_P2
2022/05/11 00:01:47;;;;;;;2.25;1.10;;;22.40;46.70;21.20;100935.00;;;;5025076;28;20570;-71
2022/05/11 00:04:34;;;;;;;0.80;0.80;;;22.40;46.70;21.30;100931.00;;;;5044436;28;20037;-71
2022/05/11 00:07:20;;;;;;;2.67;1.10;;;22.40;46.80;21.30;100929.00;;;;5041335;28;20037;-71
2022/05/11 00:10:12;;;;;;;2.90;0.93;;;22.40;46.80;21.20;100922.00;;;;5036919;28;20033;-71
2022/05/11 00:12:58;;;;;;;1.35;1.05;;;22.40;46.80;21.30;100922.00;;;;5012513;28;20546;-71
2022/05/11 00:15:44;;;;;;;2.40;0.80;;;22.40;46.80;21.20;100926.00;;;;5018610;28;20049;-71
2022/05/11 00:18:30;;;;;;;1.45;1.00;;;22.40;46.90;21.20;100918.00;;;;5025066;28;20516;-71
2022/05/11 00:21:17;;;;;;;1.58;0.98;;;22.40;46.80;21.20;100910.00;;;;5038578;28;20103;-71
2022/05/11 00:24:03;;;;;;;1.55;0.90;;;22.40;46.50;21.20;100913.00;;;;5028374;28;20122;-71
2022/05/11 00:26:49;;;;;;;1.95;0.90;;;22.40;46.50;21.20;100905.00;;;;5025116;28;20436;-71
2022/05/11 00:29:35;;;;;;;1.20;1.10;;;22.40;46.50;21.20;100893.00;;;;5042479;28;20040;-71
2022/05/11 00:32:24;;;;;;;1.25;1.05;;;22.30;46.60;21.20;100902.00;;;;5041411;28;20332;-71
2022/05/11 00:35:10;;;;;;;1.58;1.10;;;22.40;46.60;21.30;100900.00;;;;5045691;28;20120;-71
2022/05/11 00:37:56;;;;;;;4.78;1.00;;;22.40;46.50;21.20;100894.00;;;;5040955;28;20045;-71
2022/05/11 00:40:51;;;;;;;1.35;0.90;;;22.40;46.30;21.20;100888.00;;;;5042233;28;20119;-69
2022/05/11 00:43:41;;;;;;;2.13;0.85;;;22.40;46.30;21.20;100895.00;;;;5039260;28;20423;-71
2022/05/11 00:46:39;;;;;;;1.27;0.90;;;22.40;46.50;21.20;100888.00;;;;5023219;28;20061;-71
2022/05/11 00:49:49;;;;;;;1.42;0.90;;;22.40;46.50;21.20;100886.00;;;;5046724;28;20040;-71
2022/05/11 00:53:09;;;;;;;1.10;0.80;;;22.40;46.50;21.20;100899.00;;;;5020731;28;20040;-71
2022/05/11 00:55:59;;;;;;;1.27;0.85;;;22.30;46.50;21.20;100896.00;;;;5020379;28;20080;-72
2022/05/11 00:58:56;;;;;;;2.33;0.88;;;22.40;46.50;21.20;100884.00;;;;5012831;28;20045;-72
2022/05/11 01:01:42;;;;;;;0.80;0.80;;;22.40;46.60;21.20;100875.00;;;;5011886;28;20057;-72
2022/05/11 01:04:28;;;;;;;1.17;0.88;;;22.40;46.70;21.20;100869.00;;;;5010661;28;20076;-72
2022/05/11 01:07:14;;;;;;;1.10;0.75;;;22.40;46.70;21.20;100873.00;;;;5011374;28;20654;-72
2022/05/11 01:10:01;;;;;;;2.53;0.93;;;22.60;46.80;21.20;100870.00;;;;5030755;28;20048;-72
2022/05/11 01:12:48;;;;;;;1.85;0.95;;;22.40;46.70;21.20;100880.00;;;;5025609;28;20037;-72
2022/05/11 01:15:35;;;;;;;2.63;1.27;;;22.40;46.70;21.20;100873.00;;;;5020845;28;20426;-72
2022/05/11 01:18:24;;;;;;;1.90;1.10;;;22.40;46.80;21.20;100870.00;;;;5021925;28;20250;-72
2022/05/11 01:21:10;;;;;;;1.10;0.65;;;22.40;46.80;21.20;100858.00;;;;5026707;28;20080;-71
2022/05/11 01:24:02;;;;;;;0.90;0.77;;;22.40;46.70;21.20;100863.00;;;;5011573;28;20079;-71
2022/05/11 01:26:48;;;;;;;0.77;0.77;;;22.40;46.80;21.20;100859.00;;;;5012259;28;20053;-71
2022/05/11 01:29:34;;;;;;;1.20;0.82;;;22.30;46.80;21.20;100848.00;;;;5043912;28;20047;-71
2022/05/11 01:32:21;;;;;;;1.70;0.70;;;22.30;46.80;21.20;100854.00;;;;5033630;28;20096;-71
2022/05/11 01:35:37;;;;;;;1.08;0.98;;;22.30;46.90;21.20;100848.00;;;;5032094;28;20544;-71
2022/05/11 01:38:38;;;;;;;1.42;0.90;;;22.40;47.10;21.20;100851.00;;;;5042756;28;20041;-72
2022/05/11 01:41:30;;;;;;;2.40;0.80;;;22.30;46.90;21.20;100837.00;;;;5020282;28;20037;-71
2022/05/11 01:44:18;;;;;;;1.33;0.93;;;22.30;46.80;21.20;100843.00;;;;5027753;28;20073;-71
2022/05/11 01:47:04;;;;;;;0.88;0.73;;;22.30;46.80;21.20;100833.00;;;;5041196;28;20103;-72
2022/05/11 01:49:50;;;;;;;2.17;0.93;;;22.30;46.70;21.20;100831.00;;;;5037122;28;20053;-71
2022/05/11 01:52:36;;;;;;;1.88;0.80;;;22.40;46.90;21.20;100836.00;;;;5038798;28;20033;-71
2022/05/11 01:55:22;;;;;;;1.85;0.80;;;22.30;46.70;21.20;100831.00;;;;5033053;28;20053;-71
2022/05/11 01:58:09;;;;;;;1.60;1.00;;;22.30;46.70;21.20;100827.00;;;;5034880;28;20376;-71
2022/05/11 02:00:55;;;;;;;1.17;0.80;;;22.40;46.90;21.20;100821.00;;;;5032924;28;20065;-71
2022/05/11 02:03:42;;;;;;;0.73;0.73;;;22.30;46.80;21.20;100815.00;;;;5024913;28;20045;-71
2022/05/11 02:09:33;;;;;;;3.08;1.10;;;22.30;46.80;21.20;100808.00;;;;5034456;28;20535;-71
2022/05/11 02:12:19;;;;;;;2.78;0.93;;;22.30;46.80;21.20;100805.00;;;;5041145;28;20051;-71
2022/05/11 02:15:07;;;;;;;1.30;0.88;;;22.30;46.90;21.20;100794.00;;;;5042255;28;20102;-71
2022/05/11 02:17:53;;;;;;;1.73;0.88;;;22.30;46.90;21.20;100800.00;;;;5022816;28;20044;-71
2022/05/11 02:20:39;;;;;;;1.30;1.00;;;22.30;46.90;21.20;100797.00;;;;5037706;28;20052;-71
2022/05/11 02:23:25;;;;;;;1.20;0.80;;;22.30;46.90;21.20;100797.00;;;;5038477;28;20041;-71
2022/05/11 02:26:12;;;;;;;1.10;0.80;;;22.30;46.90;21.20;100801.00;;;;5026151;28;20041;-71
2022/05/11 02:28:58;;;;;;;0.98;0.77;;;22.30;47.00;21.20;100803.00;;;;5045476;28;20041;-71
2022/05/11 02:31:44;;;;;;;1.58;0.93;;;22.30;47.00;21.20;100801.00;;;;5033924;28;20045;-71
2022/05/11 02:37:35;;;;;;;2.72;1.00;;;22.40;47.10;21.20;100792.00;;;;5045134;28;20055;-71
2022/05/11 02:40:30;;;;;;;1.02;0.80;;;22.30;47.00;21.20;100793.00;;;;5028694;28;20045;-71
2022/05/11 02:43:16;;;;;;;0.88;0.70;;;22.30;47.00;21.20;100782.00;;;;5027838;28;20041;-71
2022/05/11 02:46:02;;;;;;;1.95;1.00;;;22.30;47.00;21.20;100778.00;;;;5037342;28;20471;-71
2022/05/11 02:48:48;;;;;;;1.90;0.68;;;22.30;47.00;21.20;100773.00;;;;5040114;28;20046;-71
2022/05/11 02:51:34;;;;;;;1.30;0.77;;;22.30;47.00;21.20;100779.00;;;;5044902;28;20041;-71
2022/05/11 02:54:20;;;;;;;2.80;1.08;;;22.30;46.90;21.20;100768.00;;;;5038005;28;20049;-71
2022/05/11 02:57:07;;;;;;;2.33;0.90;;;22.30;47.00;21.20;100767.00;;;;5045237;28;20033;-71
2022/05/11 02:59:53;;;;;;;2.63;1.00;;;22.30;46.90;21.20;100765.00;;;;5017781;28;20037;-71
2022/05/11 03:02:39;;;;;;;1.38;0.85;;;22.30;46.90;21.10;100755.00;;;;5039263;28;20045;-71
2022/05/11 03:05:25;;;;;;;3.97;1.20;;;22.30;46.90;21.20;100764.00;;;;5044224;28;20528;-71
2022/05/11 03:08:11;;;;;;;1.80;0.88;;;22.30;46.90;21.10;100767.00;;;;5037558;28;20064;-71
2022/05/11 03:10:57;;;;;;;1.23;1.10;;;22.30;47.00;21.20;100764.00;;;;5037742;28;20037;-72
2022/05/11 03:13:43;;;;;;;0.80;0.80;;;22.20;47.70;21.20;100762.00;;;;5033954;28;20401;-71
2022/05/11 03:16:29;;;;;;;0.82;0.68;;;22.30;47.00;21.20;100765.00;;;;5044985;28;20040;-71
2022/05/11 03:19:16;;;;;;;1.45;1.20;;;22.30;47.00;21.20;100756.00;;;;5045481;28;20048;-72
2022/05/11 03:22:02;;;;;;;1.42;1.20;;;22.30;47.00;21.10;100762.00;;;;5044427;28;20044;-71
2022/05/11 03:24:48;;;;;;;4.55;1.00;;;22.30;47.00;21.20;100764.00;;;;5052367;28;20382;-72
2022/05/11 03:27:34;;;;;;;2.85;1.38;;;22.30;46.80;21.10;100756.00;;;;5044011;28;20037;-71
2022/05/11 03:30:20;;;;;;;1.33;1.10;;;22.30;47.00;21.10;100759.00;;;;5036036;28;20037;-71
2022/05/11 03:36:11;;;;;;;1.30;0.95;;;22.20;46.80;21.10;100753.00;;;;5014794;28;20048;-71
2022/05/11 03:38:57;;;;;;;1.75;1.02;;;22.20;46.80;21.10;100749.00;;;;5041598;28;20045;-71
2022/05/11 03:41:45;;;;;;;1.02;0.93;;;22.30;47.00;21.10;100746.00;;;;5042692;28;20117;-71
2022/05/11 03:44:31;;;;;;;2.70;1.45;;;22.30;46.90;21.10;100753.00;;;;5030213;28;20500;-71
2022/05/11 03:47:17;;;;;;;1.58;0.90;;;22.30;47.10;21.10;100745.00;;;;5038165;28;20385;-71
2022/05/11 03:50:04;;;;;;;1.45;0.73;;;22.30;47.00;21.10;100747.00;;;;5039527;28;20045;-71
2022/05/11 03:52:51;;;;;;;1.83;1.00;;;22.30;47.00;21.10;100747.00;;;;5042772;28;20072;-71
2022/05/11 03:55:38;;;;;;;1.23;1.00;;;22.20;47.00;21.10;100745.00;;;;5024071;28;20542;-71
2022/05/11 03:58:24;;;;;;;1.75;0.90;;;22.20;47.00;21.10;100740.00;;;;5038251;28;20481;-71
2022/05/11 04:01:10;;;;;;;2.80;0.88;;;22.20;47.00;21.10;100737.00;;;;5033927;28;20072;-71
2022/05/11 04:03:56;;;;;;;2.47;1.20;;;22.20;47.00;21.10;100735.00;;;;5034704;28;20494;-71
2022/05/11 04:06:43;;;;;;;1.08;0.82;;;22.20;47.10;21.10;100742.00;;;;5037853;28;20040;-71
2022/05/11 04:09:29;;;;;;;1.98;0.80;;;22.20;47.10;21.10;100733.00;;;;5028643;28;20138;-71
2022/05/11 04:12:15;;;;;;;2.45;1.20;;;22.20;47.10;21.10;100737.00;;;;5039726;28;20045;-71
2022/05/11 04:15:02;;;;;;;1.10;0.98;;;22.20;47.10;21.10;100738.00;;;;5038390;28;20049;-71
2022/05/11 04:17:49;;;;;;;1.15;1.00;;;22.20;47.20;21.10;100730.00;;;;5026542;28;20048;-71
2022/05/11 04:20:35;;;;;;;2.50;1.08;;;22.20;47.20;21.10;100733.00;;;;5039114;28;20044;-71
2022/05/11 04:23:21;;;;;;;2.08;1.10;;;22.20;47.10;21.10;100727.00;;;;5035314;28;20494;-71
2022/05/11 04:26:08;;;;;;;1.10;1.00;;;22.20;47.10;21.10;100727.00;;;;5025960;28;20057;-72
2022/05/11 04:28:54;;;;;;;0.93;0.90;;;22.20;47.20;21.10;100721.00;;;;5019690;28;20041;-71
2022/05/11 04:31:40;;;;;;;1.65;1.27;;;22.20;47.20;21.10;100724.00;;;;5035602;28;20456;-71
2022/05/11 04:34:27;;;;;;;2.55;1.15;;;22.20;47.20;21.10;100717.00;;;;5041184;28;20049;-71
2022/05/11 04:37:14;;;;;;;1.23;1.08;;;22.20;47.30;21.10;100713.00;;;;5036460;28;20499;-71
2022/05/11 04:40:00;;;;;;;2.13;0.90;;;22.20;47.40;21.10;100717.00;;;;5029718;28;20408;-71
2022/05/11 04:42:46;;;;;;;1.08;0.93;;;22.20;47.30;21.10;100716.00;;;;5037472;28;20049;-71
2022/05/11 04:45:32;;;;;;;1.38;1.23;;;22.20;47.30;21.10;100713.00;;;;5024822;28;20443;-71
2022/05/11 04:48:18;;;;;;;1.90;0.95;;;22.20;47.40;21.10;100709.00;;;;5041836;28;20052;-71
2022/05/11 04:51:04;;;;;;;1.42;1.23;;;22.20;47.30;21.10;100708.00;;;;5037377;28;20215;-71
2022/05/11 04:53:50;;;;;;;1.50;1.02;;;22.20;47.40;21.10;100706.00;;;;5042072;28;20045;-71
2022/05/11 04:56:38;;;;;;;3.22;1.08;;;22.20;47.30;21.10;100705.00;;;;5035896;28;20042;-71
2022/05/11 04:59:24;;;;;;;1.45;1.05;;;22.20;47.20;21.10;100712.00;;;;5040466;28;20041;-71
2022/05/11 05:02:19;;;;;;;1.60;1.13;;;22.20;47.40;21.10;100716.00;;;;5039699;28;20076;-71
2022/05/11 05:05:05;;;;;;;1.52;1.13;;;22.20;47.30;21.10;100706.00;;;;5019170;28;20042;-71
2022/05/11 05:07:51;;;;;;;2.03;1.00;;;22.20;47.40;21.10;100708.00;;;;5038870;28;20131;-71
2022/05/11 05:10:38;;;;;;;1.30;1.02;;;22.20;47.30;21.10;100704.00;;;;5037391;28;20029;-71
2022/05/11 05:13:24;;;;;;;1.75;1.10;;;22.20;47.50;21.10;100704.00;;;;5026421;28;20056;-71
2022/05/11 05:16:10;;;;;;;1.95;1.10;;;22.20;47.40;21.10;100710.00;;;;5034129;28;20037;-71
2022/05/11 05:18:56;;;;;;;1.48;1.38;;;22.20;47.50;21.10;100708.00;;;;5036588;28;20107;-71
2022/05/11 05:21:42;;;;;;;1.77;1.20;;;22.20;47.50;21.10;100707.00;;;;5041036;28;20044;-71
2022/05/11 05:24:30;;;;;;;1.52;1.10;;;22.20;47.60;21.10;100703.00;;;;5034850;28;20045;-72
2022/05/11 05:27:17;;;;;;;;;;;22.20;47.30;21.10;100705.00;;;;5035292;28;20047;-72
2022/05/11 05:33:08;;;;;;;2.40;1.50;;;22.20;47.30;21.10;100703.00;;;;5026186;28;20402;-71
2022/05/11 05:35:54;;;;;;;1.80;1.20;;;22.20;47.30;21.00;100706.00;;;;5035758;28;20095;-71
2022/05/11 05:38:41;;;;;;;1.55;1.38;;;22.20;47.50;21.10;100707.00;;;;5031796;28;20037;-71
2022/05/11 05:41:28;;;;;;;1.38;1.27;;;22.20;47.40;21.00;100713.00;;;;5021618;28;20068;-71
2022/05/11 05:44:14;;;;;;;1.30;1.20;;;22.20;47.30;21.10;100714.00;;;;5035777;28;20039;-71
2022/05/11 05:47:04;;;;;;;2.33;1.27;;;22.20;47.30;21.10;100708.00;;;;5030046;28;20189;-71
2022/05/11 05:49:51;;;;;;;2.15;1.63;;;22.20;47.50;21.10;100713.00;;;;5034803;28;20041;-72
2022/05/11 05:52:37;;;;;;;2.08;1.40;;;22.20;47.40;21.10;100703.00;;;;5032492;28;20116;-71
2022/05/11 05:55:23;;;;;;;3.50;1.30;;;22.20;47.40;21.10;100706.00;;;;5019346;28;20048;-72
2022/05/11 05:58:10;;;;;;;2.70;1.48;;;22.20;47.40;21.10;100700.00;;;;5035683;28;20041;-72
2022/05/11 06:00:56;;;;;;;3.67;1.50;;;22.20;47.50;21.10;100709.00;;;;5032995;28;20054;-72
2022/05/11 06:03:44;;;;;;;1.98;1.40;;;22.20;47.40;21.10;100709.00;;;;5021416;28;20111;-72
2022/05/11 06:06:30;;;;;;;4.50;1.52;;;22.20;47.40;21.10;100705.00;;;;5017542;28;20048;-71
2022/05/11 06:09:16;;;;;;;1.73;1.40;;;22.20;47.50;21.10;100698.00;;;;5023380;28;20033;-71
2022/05/11 06:12:02;;;;;;;5.35;2.38;;;22.20;47.40;21.10;100700.00;;;;5031350;28;20033;-72
2022/05/11 06:14:48;;;;;;;2.70;1.60;;;22.20;47.50;21.10;100705.00;;;;5039497;28;20043;-72
2022/05/11 06:17:35;;;;;;;2.80;1.75;;;22.20;47.50;21.10;100706.00;;;;5039204;28;20475;-71
2022/05/11 06:20:21;;;;;;;2.33;1.40;;;22.20;47.50;21.10;100695.00;;;;5024035;28;20060;-72
2022/05/11 06:23:07;;;;;;;1.55;1.25;;;22.20;47.50;21.10;100691.00;;;;5038930;28;20176;-72
2022/05/11 06:25:53;;;;;;;3.65;1.90;;;22.20;47.50;21.10;100698.00;;;;5021781;28;20064;-72
2022/05/11 06:28:40;;;;;;;1.83;1.33;;;22.20;47.50;21.10;100695.00;;;;5041007;28;20110;-72
2022/05/11 06:31:26;;;;;;;2.00;1.50;;;22.20;47.50;21.10;100684.00;;;;5017045;28;20042;-72
2022/05/11 06:34:12;;;;;;;3.10;1.60;;;22.20;47.50;21.10;100690.00;;;;5037607;28;20036;-71
2022/05/11 06:36:58;;;;;;;2.88;1.90;;;22.20;47.50;21.10;100683.00;;;;5017574;28;20045;-71
2022/05/11 06:39:44;;;;;;;3.92;2.00;;;22.10;47.40;21.10;100685.00;;;;5036555;28;20045;-71
2022/05/11 06:42:31;;;;;;;3.13;1.90;;;22.20;47.40;21.00;100688.00;;;;5033022;28;20059;-71
2022/05/11 06:45:17;;;;;;;3.17;2.10;;;22.20;47.40;21.00;100684.00;;;;5036696;28;20123;-71
2022/05/11 06:48:03;;;;;;;4.75;2.08;;;22.20;47.40;21.00;100691.00;;;;5033772;28;20196;-71
2022/05/11 06:50:49;;;;;;;3.55;2.30;;;22.20;47.40;21.00;100679.00;;;;5035096;28;20044;-71
2022/05/11 06:59:44;;;;;;;4.95;2.00;;;22.20;47.50;21.00;100679.00;;;;5020077;28;20075;-71
2022/05/11 07:02:31;;;;;;;5.28;2.10;;;22.20;47.40;21.00;100676.00;;;;5034917;28;20051;-71
2022/05/11 07:05:17;;;;;;;2.70;1.90;;;22.20;47.20;21.00;100677.00;;;;5037063;28;20042;-72
2022/05/11 07:08:03;;;;;;;2.97;2.00;;;22.20;47.20;21.00;100667.00;;;;5033395;28;20033;-71
2022/05/11 07:12:17;;;;;;;3.33;2.20;;;22.10;47.10;21.00;100664.00;;;;5023105;28;20060;-71
2022/05/11 07:13:55;;;;;;;2.67;1.67;;;22.10;47.00;21.00;100670.00;;;;5046277;28;20083;-71
2022/05/11 07:16:43;;;;;;;2.55;2.00;;;22.10;46.90;21.00;100661.00;;;;5022197;28;20079;-71
2022/05/11 07:19:29;;;;;;;3.67;1.92;;;22.10;46.90;21.00;100666.00;;;;5034861;28;20049;-72
2022/05/11 07:22:15;;;;;;;3.95;1.80;;;22.10;46.90;21.00;100655.00;;;;5034993;28;20064;-71
2022/05/11 07:25:01;;;;;;;3.45;1.80;;;22.10;46.80;21.00;100651.00;;;;5042903;28;20045;-71
2022/05/11 07:27:47;;;;;;;2.92;1.90;;;22.10;46.70;21.00;100650.00;;;;5027261;28;20036;-71
2022/05/11 07:30:35;;;;;;;3.22;1.75;;;22.10;46.80;21.00;100649.00;;;;5043584;28;20048;-71
2022/05/11 07:33:21;;;;;;;5.97;2.35;;;22.10;46.80;21.00;100643.00;;;;5021840;28;20041;-71
2022/05/11 07:36:07;;;;;;;4.47;1.67;;;22.10;46.80;21.00;100642.00;;;;5037493;28;20041;-71
2022/05/11 07:38:54;;;;;;;4.20;1.60;;;22.10;46.70;21.00;100637.00;;;;5013193;28;20224;-71
2022/05/11 07:41:41;;;;;;;3.50;1.80;;;22.10;46.70;21.00;100649.00;;;;5039329;28;20052;-71
2022/05/11 07:44:27;;;;;;;4.07;1.80;;;22.10;46.80;21.00;100640.00;;;;5038449;28;20455;-71
2022/05/11 07:47:13;;;;;;;2.88;1.48;;;22.10;46.80;21.00;100633.00;;;;5042420;28;20280;-71
2022/05/11 07:49:59;;;;;;;3.55;1.40;;;22.10;46.70;21.00;100631.00;;;;5036618;28;20029;-71
2022/05/11 07:52:46;;;;;;;3.58;1.40;;;22.20;46.80;21.00;100633.00;;;;5011045;28;20037;-71
2022/05/11 07:55:33;;;;;;;2.08;1.15;;;22.20;46.80;21.00;100635.00;;;;5037838;28;20477;-71
2022/05/11 08:01:24;;;;;;;1.77;1.33;;;22.10;46.70;21.00;100633.00;;;;5039701;28;20289;-71
2022/05/11 08:04:10;;;;;;;1.90;1.00;;;22.10;46.60;21.00;100627.00;;;;5037199;28;20139;-71
2022/05/11 08:06:56;;;;;;;4.60;1.20;;;22.20;46.70;21.00;100625.00;;;;5040060;28;20033;-71
2022/05/11 08:09:42;;;;;;;4.72;1.58;;;22.20;46.70;21.00;100624.00;;;;5031163;28;20038;-71
2022/05/11 08:12:28;;;;;;;1.70;1.30;;;22.20;46.70;21.10;100626.00;;;;5045101;28;20033;-71
2022/05/11 08:15:15;;;;;;;2.33;1.23;;;22.20;46.60;21.10;100626.00;;;;5040169;28;20421;-71
2022/05/11 08:18:01;;;;;;;3.58;1.45;;;22.20;46.60;21.10;100624.00;;;;5009689;28;20049;-71
2022/05/11 08:20:49;;;;;;;1.33;1.20;;;22.20;46.70;21.10;100618.00;;;;5025039;28;20269;-71
2022/05/11 08:23:35;;;;;;;3.45;1.33;;;22.20;46.60;21.10;100629.00;;;;5034360;28;20116;-71
2022/05/11 08:26:21;;;;;;;2.20;1.70;;;22.20;46.60;21.10;100626.00;;;;5040683;28;20492;-71
2022/05/11 08:29:08;;;;;;;3.08;1.35;;;22.20;46.60;21.10;100624.00;;;;5027830;28;20045;-71
2022/05/11 08:34:58;;;;;;;1.50;1.25;;;22.20;46.70;21.10;100633.00;;;;5042174;28;20052;-72
2022/05/11 08:37:44;;;;;;;4.20;1.08;;;22.20;46.60;21.10;100636.00;;;;5036420;28;20049;-71
2022/05/11 08:40:39;;;;;;;3.10;1.50;;;22.20;46.60;21.10;100631.00;;;;5041214;28;20055;-71
2022/05/11 08:43:31;;;;;;;3.55;1.42;;;22.20;46.60;21.10;100626.00;;;;5045005;28;20406;-71
2022/05/11 08:46:43;;;;;;;2.45;1.45;;;22.20;46.60;21.10;100624.00;;;;5034389;28;20041;-71
2022/05/11 08:49:53;;;;;;;2.25;1.55;;;22.20;46.50;21.10;100623.00;;;;5025937;28;20128;-71
2022/05/11 08:52:52;;;;;;;3.25;1.48;;;22.20;46.60;21.10;100627.00;;;;5008974;28;20048;-72
2022/05/11 08:55:51;;;;;;;3.50;1.55;;;22.30;46.70;21.20;100641.00;;;;5028827;28;20041;-72
2022/05/11 08:58:49;;;;;;;3.33;1.50;;;22.30;46.80;21.20;100632.00;;;;5018760;28;20544;-72
2022/05/11 09:01:50;;;;;;;3.90;1.80;;;22.30;46.90;21.20;100633.00;;;;5019255;28;20467;-71
2022/05/11 09:04:47;;;;;;;1.77;1.30;;;22.30;46.90;21.20;100648.00;;;;5021537;28;20052;-71
2022/05/11 09:07:38;;;;;;;3.08;1.20;;;22.30;46.90;21.20;100637.00;;;;5026500;28;20044;-72
2022/05/11 09:10:30;;;;;;;2.97;1.58;;;22.30;46.80;21.20;100643.00;;;;5002776;28;20380;-71
2022/05/11 09:13:18;;;;;;;2.20;1.40;;;22.30;46.80;21.20;100625.00;;;;5026564;28;20055;-72
2022/05/11 09:16:05;;;;;;;4.15;1.25;;;22.40;46.80;21.20;100627.00;;;;5035641;28;20090;-71
2022/05/11 09:18:52;;;;;;;;;;;22.40;46.80;21.20;100625.00;;;;5009326;28;20120;-71
2022/05/11 09:21:38;;;;;;;3.17;1.10;;;22.30;46.80;21.20;100609.00;;;;5021950;28;20042;-71
2022/05/11 09:24:30;;;;;;;1.92;1.17;;;22.40;46.70;21.20;100622.00;;;;5041277;28;20136;-71
2022/05/11 09:27:31;;;;;;;3.08;1.50;;;22.30;46.60;21.20;100623.00;;;;5021798;28;20388;-71
2022/05/11 09:30:30;;;;;;;2.75;1.48;;;22.50;46.80;21.20;100625.00;;;;5033072;28;20033;-71
2022/05/11 09:33:24;;;;;;;2.00;1.17;;;22.40;46.70;21.30;100616.00;;;;5030210;28;20124;-71
2022/05/11 09:36:11;;;;;;;3.30;1.40;;;22.40;46.60;21.20;100617.00;;;;5040067;28;20080;-71
2022/05/11 09:39:13;;;;;;;2.75;1.30;;;22.40;46.70;21.30;100616.00;;;;5015278;28;20036;-71
2022/05/11 09:42:15;;;;;;;5.57;1.55;;;22.40;47.40;21.30;100610.00;;;;5024772;28;20059;-71
2022/05/11 09:45:03;;;;;;;10.77;1.67;;;22.40;46.80;21.30;100602.00;;;;5007372;28;20103;-71
2022/05/11 09:48:02;;;;;;;;;;;22.40;46.70;21.30;100610.00;;;;5009081;28;20033;-71
2022/05/11 09:50:53;;;;;;;2.95;1.15;;;22.50;46.80;21.30;100612.00;;;;5009489;28;20263;-71
2022/05/11 09:53:39;;;;;;;2.58;1.70;;;22.40;46.70;21.30;100604.00;;;;5026507;28;20052;-71
2022/05/11 09:56:33;;;;;;;3.67;1.35;;;22.50;46.70;21.30;100618.00;;;;4996769;28;20037;-71
2022/05/11 09:59:41;;;;;;;3.05;1.23;;;22.50;46.70;21.30;100612.00;;;;5016970;28;20037;-71
2022/05/11 10:02:38;;;;;;;7.82;1.70;;;22.50;46.80;21.30;100603.00;;;;5027237;28;20371;-71
2022/05/11 10:05:40;;;;;;;2.13;1.45;;;22.50;46.80;21.40;100606.00;;;;5026110;28;20503;-71
2022/05/11 10:08:33;;;;;;;1.92;1.17;;;22.50;46.80;21.40;100605.00;;;;5014953;28;20049;-71
2022/05/11 10:11:25;;;;;;;4.00;1.70;;;22.50;46.90;21.40;100615.00;;;;5026008;28;20047;-71
2022/05/11 10:24:30;;;;;;;2.92;1.52;;;22.60;47.00;21.40;100592.00;;;;5012890;28;20119;-71
2022/05/11 10:27:32;;;;;;;4.03;1.48;;;22.60;47.00;21.40;100592.00;;;;5010499;28;20102;-71
2022/05/11 10:30:28;;;;;;;3.45;1.45;;;22.60;47.00;21.40;100589.00;;;;5038127;28;20045;-71
2022/05/11 10:33:24;;;;;;;4.50;1.63;;;22.60;46.90;21.40;100596.00;;;;5030260;28;20041;-71
2022/05/11 10:36:55;;;;;;;2.33;1.50;;;22.60;46.80;21.50;100597.00;;;;5036396;28;20052;-71
2022/05/11 10:40:28;;;;;;;1.70;1.60;;;22.60;46.90;21.50;100583.00;;;;5042850;28;20049;-71
2022/05/11 10:43:39;;;;;;;2.15;1.42;;;22.70;46.90;21.50;100588.00;;;;5030998;28;20051;-72
2022/05/11 10:46:40;;;;;;;3.97;1.65;;;22.70;47.00;21.40;100579.00;;;;5027166;28;20403;-71
2022/05/11 10:50:01;;;;;;;4.25;1.77;;;22.70;46.80;21.50;100591.00;;;;5022684;28;20043;-71
2022/05/11 10:52:56;;;;;;;5.28;1.65;;;22.70;46.90;21.40;100587.00;;;;5036888;28;20455;-71
2022/05/11 10:56:00;;;;;;;2.50;1.70;;;22.70;46.90;21.50;100587.00;;;;5028832;28;20441;-71
2022/05/11 10:59:21;;;;;;;2.83;1.65;;;22.70;47.10;21.50;100587.00;;;;5026795;28;20490;-71
2022/05/11 11:02:29;;;;;;;2.65;1.65;;;22.70;47.00;21.50;100581.00;;;;5040570;28;20446;-71
2022/05/11 11:05:39;;;;;;;4.47;1.80;;;22.70;47.00;21.50;100568.00;;;;5044031;28;20114;-71
2022/05/11 11:08:33;;;;;;;6.45;1.80;;;22.70;47.00;21.50;100567.00;;;;5040317;28;20127;-71
2022/05/11 11:11:48;;;;;;;3.63;1.60;;;22.70;47.00;21.50;100573.00;;;;5014451;28;20116;-71
2022/05/11 11:14:37;;;;;;;3.72;1.65;;;22.70;46.90;21.50;100573.00;;;;5014706;28;20171;-71
2022/05/11 11:17:24;;;;;;;1.80;1.70;;;22.70;46.80;21.50;100567.00;;;;5012614;28;20046;-71
2022/05/11 11:20:12;;;;;;;5.72;1.80;;;22.70;46.80;21.50;100570.00;;;;5029585;28;20052;-71
2022/05/11 11:23:16;;;;;;;4.03;1.83;;;22.70;46.80;21.60;100570.00;;;;5020699;28;20037;-71
2022/05/11 11:26:33;;;;;;;4.15;1.83;;;22.80;46.80;21.60;100561.00;;;;5038491;28;20232;-72
2022/05/11 11:29:35;;;;;;;3.60;1.55;;;22.80;46.70;21.60;100562.00;;;;5008733;28;20190;-71
2022/05/11 11:32:21;;;;;;;3.72;1.40;;;22.80;46.70;21.60;100563.00;;;;5013818;28;20251;-71
2022/05/11 11:35:34;;;;;;;2.67;1.45;;;22.80;46.80;21.60;100559.00;;;;5038389;28;20440;-71
2022/05/11 11:38:31;;;;;;;3.30;1.80;;;22.80;46.70;21.60;100564.00;;;;5027982;28;20049;-71
2022/05/11 11:41:42;;;;;;;4.28;1.73;;;22.80;46.70;21.70;100555.00;;;;5011810;28;20045;-71
2022/05/11 11:44:37;;;;;;;3.85;1.70;;;22.80;46.60;21.70;100556.00;;;;5022119;28;20415;-71
2022/05/11 11:47:26;;;;;;;2.33;1.50;;;22.90;46.70;21.70;100555.00;;;;5027109;28;20614;-71
2022/05/11 11:50:47;;;;;;;2.08;1.52;;;22.80;46.60;21.70;100560.00;;;;5038444;28;20151;-71
2022/05/11 11:53:51;;;;;;;4.60;1.45;;;22.90;46.60;21.70;100561.00;;;;5041333;28;20048;-71
2022/05/11 11:56:38;;;;;;;4.15;1.65;;;22.90;46.50;21.70;100550.00;;;;5034281;28;20037;-71
2022/05/11 11:59:24;;;;;;;1.50;1.40;;;22.90;46.40;21.70;100550.00;;;;5013151;28;20123;-71
2022/05/11 12:02:39;;;;;;;4.05;1.63;;;22.90;46.40;21.70;100554.00;;;;5033633;28;20277;-71
2022/05/11 12:05:37;;;;;;;4.25;1.80;;;22.90;46.50;21.80;100546.00;;;;5025412;28;20045;-71
2022/05/11 12:17:45;;;;;;;4.20;1.83;;;22.90;46.30;21.80;100524.00;;;;5038873;28;20425;-71
2022/05/11 12:20:42;;;;;;;6.32;1.83;;;23.00;46.40;21.80;100529.00;;;;5030428;28;20232;-71
2022/05/11 12:23:38;;;;;;;5.45;1.83;;;23.00;46.40;21.80;100538.00;;;;5034815;28;20056;-71
2022/05/11 12:26:33;;;;;;;2.65;1.63;;;23.00;46.30;21.80;100530.00;;;;5026363;28;20045;-71
2022/05/11 12:32:35;;;;;;;3.33;1.40;;;23.00;46.30;21.80;100536.00;;;;5045298;28;20044;-71
2022/05/11 12:35:34;;;;;;;3.40;1.60;;;23.00;46.20;21.80;100530.00;;;;5027545;28;20112;-71
2022/05/11 12:38:34;;;;;;;2.97;1.55;;;23.00;46.20;21.80;100527.00;;;;5040106;28;20046;-71
2022/05/11 12:41:21;;;;;;;3.47;1.48;;;23.00;46.20;21.80;100528.00;;;;5024231;28;20073;-71
2022/05/11 12:44:12;;;;;;;2.15;1.30;;;23.00;46.30;21.80;100525.00;;;;5021376;28;20537;-71
2022/05/11 12:46:59;;;;;;;3.13;1.80;;;23.00;46.30;21.80;100533.00;;;;5001714;28;20052;-71
2022/05/11 12:49:47;;;;;;;3.10;1.52;;;23.10;46.50;21.80;100510.00;;;;4999013;28;20048;-71
2022/05/11 12:52:34;;;;;;;2.25;1.40;;;23.10;46.50;21.80;100508.00;;;;5036928;28;20300;-71
2022/05/11 12:55:27;;;;;;;4.88;1.88;;;23.10;46.40;21.80;100500.00;;;;5033807;28;20223;-71
2022/05/11 12:58:18;;;;;;;3.78;1.70;;;23.10;46.40;21.90;100511.00;;;;5019684;28;20045;-71
2022/05/11 13:01:05;;;;;;;2.83;1.65;;;23.10;46.80;21.90;100511.00;;;;5015663;28;20049;-71
2022/05/11 13:03:54;;;;;;;1.85;1.48;;;23.10;46.50;21.90;100512.00;;;;5034501;28;20048;-71
2022/05/11 13:06:46;;;;;;;3.13;1.75;;;23.10;46.40;21.90;100516.00;;;;5024261;28;20041;-71
2022/05/11 13:09:38;;;;;;;3.83;2.10;;;23.10;46.50;21.90;100522.00;;;;5022786;28;20067;-71
2022/05/11 13:12:25;;;;;;;7.53;2.00;;;23.10;46.40;21.90;100505.00;;;;5038725;28;20489;-71
2022/05/11 13:15:11;;;;;;;3.97;1.63;;;23.10;46.30;21.90;100502.00;;;;5023092;28;20545;-71
2022/05/11 13:17:57;;;;;;;3.00;1.70;;;23.10;46.30;21.90;100499.00;;;;5012518;28;20055;-71